sensor_id;sensor_type;location;lat;lon;timestamp;temperature;humidity
7784;DHT22;19359;51.402;6.778;2022-08-21T00:00:26;18.40;99.90
7784;DHT22;19359;51.402;6.778;2022-08-21T00:02:55;18.30;99.90
7784;DHT22;19359;51.402;6.778;2022-08-21T00:05:24;18.40;99.90
7784;DHT22;19359;51.402;6.778;2022-08-21T00:07:52;18.40;99.90
7784;DHT22;19359;51.402;6.778;2022-08-21T00:10:20;18.40;99.90
7784;DHT22;19359;51.402;6.778;2022-08-21T00:12:47;18.40;99.90
7784;DHT22;19359;51.402;6.778;2022-08-21T00:15:18;18.40;99.90
7784;DHT22;19359;51.402;6.778;2022-08-21T00:17:45;18.40;99.90
7784;DHT22;19359;51.402;6.778;2022-08-21T00:20:13;18.40;99.90
7784;DHT22;19359;51.402;6.778;2022-08-21T00:22:40;18.40;99.90
7784;DHT22;19359;51.402;6.778;2022-08-21T00:25:09;18.40;99.90
7784;DHT22;19359;51.402;6.778;2022-08-21T00:27:36;18.30;99.90
7784;DHT22;19359;51.402;6.778;2022-08-21T00:30:05;18.30;99.90
7784;DHT22;19359;51.402;6.778;2022-08-21T00:32:33;18.30;99.90
7784;DHT22;19359;51.402;6.778;2022-08-21T00:34:59;18.20;99.90
7784;DHT22;19359;51.402;6.778;2022-08-21T00:37:26;18.10;99.90
7784;DHT22;19359;51.402;6.778;2022-08-21T00:39:53;18.00;99.90
7784;DHT22;19359;51.402;6.778;2022-08-21T00:42:21;18.00;99.90
7784;DHT22;19359;51.402;6.778;2022-08-21T00:44:49;17.90;99.90
7784;DHT22;19359;51.402;6.778;2022-08-21T00:47:16;17.80;99.90
7784;DHT22;19359;51.402;6.778;2022-08-21T00:49:43;17.70;99.90
7784;DHT22;19359;51.402;6.778;2022-08-21T00:52:16;17.60;99.90
7784;DHT22;19359;51.402;6.778;2022-08-21T00:54:44;17.50;99.90
7784;DHT22;19359;51.402;6.778;2022-08-21T00:57:14;17.40;99.90
7784;DHT22;19359;51.402;6.778;2022-08-21T00:59:45;17.40;99.90
7784;DHT22;19359;51.402;6.778;2022-08-21T01:02:12;17.40;99.90
7784;DHT22;19359;51.402;6.778;2022-08-21T01:04:40;17.30;99.90
7784;DHT22;19359;51.402;6.778;2022-08-21T01:07:07;17.30;99.90
7784;DHT22;19359;51.402;6.778;2022-08-21T01:09:34;17.20;99.90
7784;DHT22;19359;51.402;6.778;2022-08-21T01:12:02;17.10;99.90
7784;DHT22;19359;51.402;6.778;2022-08-21T01:14:29;17.00;99.90
7784;DHT22;19359;51.402;6.778;2022-08-21T01:16:59;17.00;99.90
7784;DHT22;19359;51.402;6.778;2022-08-21T01:19:27;17.00;99.90
7784;DHT22;19359;51.402;6.778;2022-08-21T01:21:55;16.90;99.90
7784;DHT22;19359;51.402;6.778;2022-08-21T01:24:22;16.80;99.90
7784;DHT22;19359;51.402;6.778;2022-08-21T01:26:50;16.80;99.90
7784;DHT22;19359;51.402;6.778;2022-08-21T01:29:26;16.70;99.90
7784;DHT22;19359;51.402;6.778;2022-08-21T01:31:53;16.60;99.90
7784;DHT22;19359;51.402;6.778;2022-08-21T01:34:20;16.60;99.90
7784;DHT22;19359;51.402;6.778;2022-08-21T01:36:47;16.60;99.90
7784;DHT22;19359;51.402;6.778;2022-08-21T01:39:15;16.60;99.90
7784;DHT22;19359;51.402;6.778;2022-08-21T01:41:42;16.60;99.90
7784;DHT22;19359;51.402;6.778;2022-08-21T01:44:09;16.60;99.90
7784;DHT22;19359;51.402;6.778;2022-08-21T01:49:03;16.50;99.90
7784;DHT22;19359;51.402;6.778;2022-08-21T01:51:31;16.50;99.90
7784;DHT22;19359;51.402;6.778;2022-08-21T01:53:58;16.30;99.90
7784;DHT22;19359;51.402;6.778;2022-08-21T01:56:26;16.30;99.90
7784;DHT22;19359;51.402;6.778;2022-08-21T01:58:54;16.20;99.90
7784;DHT22;19359;51.402;6.778;2022-08-21T02:01:21;16.20;99.90
7784;DHT22;19359;51.402;6.778;2022-08-21T02:03:48;16.20;99.90
7784;DHT22;19359;51.402;6.778;2022-08-21T02:06:15;16.30;99.90
7784;DHT22;19359;51.402;6.778;2022-08-21T02:08:43;16.30;99.90
7784;DHT22;19359;51.402;6.778;2022-08-21T02:11:10;16.30;99.90
7784;DHT22;19359;51.402;6.778;2022-08-21T02:13:38;16.30;99.90
7784;DHT22;19359;51.402;6.778;2022-08-21T02:16:05;16.30;99.90
7784;DHT22;19359;51.402;6.778;2022-08-21T02:18:33;16.20;99.90
7784;DHT22;19359;51.402;6.778;2022-08-21T02:21:00;16.20;99.90
7784;DHT22;19359;51.402;6.778;2022-08-21T02:23:27;16.30;99.90
7784;DHT22;19359;51.402;6.778;2022-08-21T02:25:54;16.30;99.90
7784;DHT22;19359;51.402;6.778;2022-08-21T02:28:22;16.40;99.90
7784;DHT22;19359;51.402;6.778;2022-08-21T02:30:51;16.50;99.90
7784;DHT22;19359;51.402;6.778;2022-08-21T02:33:19;16.50;99.90
7784;DHT22;19359;51.402;6.778;2022-08-21T02:35:47;16.50;99.90
7784;DHT22;19359;51.402;6.778;2022-08-21T02:38:16;16.50;99.90
7784;DHT22;19359;51.402;6.778;2022-08-21T02:40:47;16.40;99.90
7784;DHT22;19359;51.402;6.778;2022-08-21T02:43:14;16.30;99.90
7784;DHT22;19359;51.402;6.778;2022-08-21T02:45:43;16.30;99.90
7784;DHT22;19359;51.402;6.778;2022-08-21T02:48:16;16.10;99.90
7784;DHT22;19359;51.402;6.778;2022-08-21T02:50:47;16.10;99.90
7784;DHT22;19359;51.402;6.778;2022-08-21T02:53:15;16.10;99.90
7784;DHT22;19359;51.402;6.778;2022-08-21T02:55:43;16.10;99.90
7784;DHT22;19359;51.402;6.778;2022-08-21T02:58:11;16.10;99.90
7784;DHT22;19359;51.402;6.778;2022-08-21T03:00:39;16.00;99.90
7784;DHT22;19359;51.402;6.778;2022-08-21T03:03:06;16.00;99.90
7784;DHT22;19359;51.402;6.778;2022-08-21T03:05:35;15.90;99.90
7784;DHT22;19359;51.402;6.778;2022-08-21T03:08:06;15.90;99.90
7784;DHT22;19359;51.402;6.778;2022-08-21T03:10:34;15.80;99.90
7784;DHT22;19359;51.402;6.778;2022-08-21T03:13:01;15.90;99.90
7784;DHT22;19359;51.402;6.778;2022-08-21T03:15:29;15.80;99.90
7784;DHT22;19359;51.402;6.778;2022-08-21T03:17:56;15.70;99.90
7784;DHT22;19359;51.402;6.778;2022-08-21T03:20:26;15.70;99.90
7784;DHT22;19359;51.402;6.778;2022-08-21T03:22:55;15.60;99.90
7784;DHT22;19359;51.402;6.778;2022-08-21T03:25:23;15.70;99.90
7784;DHT22;19359;51.402;6.778;2022-08-21T03:27:50;15.70;99.90
7784;DHT22;19359;51.402;6.778;2022-08-21T03:30:18;15.60;99.90
7784;DHT22;19359;51.402;6.778;2022-08-21T03:32:45;15.70;99.90
7784;DHT22;19359;51.402;6.778;2022-08-21T03:35:13;15.60;99.90
7784;DHT22;19359;51.402;6.778;2022-08-21T03:37:40;15.70;99.90
7784;DHT22;19359;51.402;6.778;2022-08-21T03:40:10;15.70;99.90
7784;DHT22;19359;51.402;6.778;2022-08-21T03:42:38;15.60;99.90
7784;DHT22;19359;51.402;6.778;2022-08-21T03:45:06;15.50;99.90
7784;DHT22;19359;51.402;6.778;2022-08-21T03:47:33;15.50;99.90
7784;DHT22;19359;51.402;6.778;2022-08-21T03:50:00;15.50;99.90
7784;DHT22;19359;51.402;6.778;2022-08-21T03:52:27;15.50;99.90
7784;DHT22;19359;51.402;6.778;2022-08-21T03:54:54;15.40;99.90
7784;DHT22;19359;51.402;6.778;2022-08-21T03:57:22;15.40;99.90
7784;DHT22;19359;51.402;6.778;2022-08-21T03:59:49;15.40;99.90
7784;DHT22;19359;51.402;6.778;2022-08-21T04:02:17;15.40;99.90
7784;DHT22;19359;51.402;6.778;2022-08-21T04:04:47;15.30;99.90
7784;DHT22;19359;51.402;6.778;2022-08-21T04:07:13;15.30;99.90
7784;DHT22;19359;51.402;6.778;2022-08-21T04:09:40;15.30;99.90
7784;DHT22;19359;51.402;6.778;2022-08-21T04:12:07;15.20;99.90
7784;DHT22;19359;51.402;6.778;2022-08-21T04:14:36;15.20;99.90
7784;DHT22;19359;51.402;6.778;2022-08-21T04:17:02;15.20;99.90
7784;DHT22;19359;51.402;6.778;2022-08-21T04:19:29;15.30;99.90
7784;DHT22;19359;51.402;6.778;2022-08-21T04:21:56;15.30;99.90
7784;DHT22;19359;51.402;6.778;2022-08-21T04:24:23;15.40;99.90
7784;DHT22;19359;51.402;6.778;2022-08-21T04:26:50;15.40;99.90
7784;DHT22;19359;51.402;6.778;2022-08-21T04:29:17;15.60;99.90
7784;DHT22;19359;51.402;6.778;2022-08-21T04:31:45;15.60;99.90
7784;DHT22;19359;51.402;6.778;2022-08-21T04:34:12;15.60;99.90
7784;DHT22;19359;51.402;6.778;2022-08-21T04:36:39;15.60;99.90
7784;DHT22;19359;51.402;6.778;2022-08-21T04:39:06;15.60;99.90
7784;DHT22;19359;51.402;6.778;2022-08-21T04:41:33;15.60;99.90
7784;DHT22;19359;51.402;6.778;2022-08-21T04:44:00;15.60;99.90
7784;DHT22;19359;51.402;6.778;2022-08-21T04:46:28;15.70;99.90
7784;DHT22;19359;51.402;6.778;2022-08-21T04:48:56;15.60;99.90
7784;DHT22;19359;51.402;6.778;2022-08-21T04:51:25;15.60;99.90
7784;DHT22;19359;51.402;6.778;2022-08-21T04:53:57;15.50;99.90
7784;DHT22;19359;51.402;6.778;2022-08-21T04:56:27;15.50;99.90
7784;DHT22;19359;51.402;6.778;2022-08-21T04:58:58;15.60;99.90
7784;DHT22;19359;51.402;6.778;2022-08-21T05:01:29;15.60;99.90
7784;DHT22;19359;51.402;6.778;2022-08-21T05:03:59;15.60;99.90
7784;DHT22;19359;51.402;6.778;2022-08-21T05:06:28;15.60;99.90
7784;DHT22;19359;51.402;6.778;2022-08-21T05:08:57;15.60;99.90
7784;DHT22;19359;51.402;6.778;2022-08-21T05:11:24;15.70;99.90
7784;DHT22;19359;51.402;6.778;2022-08-21T05:13:51;15.70;99.90
7784;DHT22;19359;51.402;6.778;2022-08-21T05:16:18;15.70;99.90
7784;DHT22;19359;51.402;6.778;2022-08-21T05:18:45;15.80;99.90
7784;DHT22;19359;51.402;6.778;2022-08-21T05:21:13;15.80;99.90
7784;DHT22;19359;51.402;6.778;2022-08-21T05:23:39;15.90;99.90
7784;DHT22;19359;51.402;6.778;2022-08-21T05:26:06;16.00;99.90
7784;DHT22;19359;51.402;6.778;2022-08-21T05:28:33;16.10;99.90
7784;DHT22;19359;51.402;6.778;2022-08-21T05:31:00;16.10;99.90
7784;DHT22;19359;51.402;6.778;2022-08-21T05:33:27;16.10;99.90
7784;DHT22;19359;51.402;6.778;2022-08-21T05:35:54;16.10;99.90
7784;DHT22;19359;51.402;6.778;2022-08-21T05:38:24;16.10;99.90
7784;DHT22;19359;51.402;6.778;2022-08-21T05:40:52;16.20;99.90
7784;DHT22;19359;51.402;6.778;2022-08-21T05:43:19;16.10;99.90
7784;DHT22;19359;51.402;6.778;2022-08-21T05:45:46;16.10;99.90
7784;DHT22;19359;51.402;6.778;2022-08-21T05:48:17;16.20;99.90
7784;DHT22;19359;51.402;6.778;2022-08-21T05:50:45;16.20;99.90
7784;DHT22;19359;51.402;6.778;2022-08-21T05:53:13;16.30;99.90
7784;DHT22;19359;51.402;6.778;2022-08-21T05:55:42;16.30;99.90
7784;DHT22;19359;51.402;6.778;2022-08-21T05:58:09;16.30;99.90
7784;DHT22;19359;51.402;6.778;2022-08-21T06:00:36;16.50;99.90
7784;DHT22;19359;51.402;6.778;2022-08-21T06:03:03;16.60;99.90
7784;DHT22;19359;51.402;6.778;2022-08-21T06:05:30;16.70;99.90
7784;DHT22;19359;51.402;6.778;2022-08-21T06:07:57;16.70;99.90
7784;DHT22;19359;51.402;6.778;2022-08-21T06:10:23;16.70;99.90
7784;DHT22;19359;51.402;6.778;2022-08-21T06:12:54;16.90;99.90
7784;DHT22;19359;51.402;6.778;2022-08-21T06:15:21;17.00;99.90
7784;DHT22;19359;51.402;6.778;2022-08-21T06:20:15;17.10;99.90
7784;DHT22;19359;51.402;6.778;2022-08-21T06:22:42;17.20;99.90
7784;DHT22;19359;51.402;6.778;2022-08-21T06:25:09;17.20;99.90
7784;DHT22;19359;51.402;6.778;2022-08-21T06:27:35;17.30;99.90
7784;DHT22;19359;51.402;6.778;2022-08-21T06:30:05;17.40;99.90
7784;DHT22;19359;51.402;6.778;2022-08-21T06:32:32;17.50;99.90
7784;DHT22;19359;51.402;6.778;2022-08-21T06:34:59;17.60;99.90
7784;DHT22;19359;51.402;6.778;2022-08-21T06:37:26;17.70;99.90
7784;DHT22;19359;51.402;6.778;2022-08-21T06:47:15;17.90;99.90
7784;DHT22;19359;51.402;6.778;2022-08-21T06:49:42;18.00;99.90
7784;DHT22;19359;51.402;6.778;2022-08-21T06:52:09;18.00;99.90
7784;DHT22;19359;51.402;6.778;2022-08-21T06:54:36;18.10;99.90
7784;DHT22;19359;51.402;6.778;2022-08-21T06:57:03;18.20;99.90
7784;DHT22;19359;51.402;6.778;2022-08-21T06:59:30;18.20;99.90
7784;DHT22;19359;51.402;6.778;2022-08-21T07:01:58;18.30;99.90
7784;DHT22;19359;51.402;6.778;2022-08-21T07:04:26;18.40;99.90
7784;DHT22;19359;51.402;6.778;2022-08-21T07:06:53;18.40;99.90
7784;DHT22;19359;51.402;6.778;2022-08-21T07:09:20;18.50;99.90
7784;DHT22;19359;51.402;6.778;2022-08-21T07:11:50;18.50;99.90
7784;DHT22;19359;51.402;6.778;2022-08-21T07:14:17;18.60;99.90
7784;DHT22;19359;51.402;6.778;2022-08-21T07:16:44;18.70;99.90
7784;DHT22;19359;51.402;6.778;2022-08-21T07:19:11;18.80;99.90
7784;DHT22;19359;51.402;6.778;2022-08-21T07:21:39;18.90;99.90
7784;DHT22;19359;51.402;6.778;2022-08-21T07:24:06;19.00;99.90
7784;DHT22;19359;51.402;6.778;2022-08-21T07:26:33;19.10;99.90
7784;DHT22;19359;51.402;6.778;2022-08-21T07:29:00;19.20;99.90
7784;DHT22;19359;51.402;6.778;2022-08-21T07:31:28;19.30;99.90
7784;DHT22;19359;51.402;6.778;2022-08-21T07:33:55;19.40;99.90
7784;DHT22;19359;51.402;6.778;2022-08-21T07:36:22;19.40;99.90
7784;DHT22;19359;51.402;6.778;2022-08-21T07:38:50;19.50;99.90
7784;DHT22;19359;51.402;6.778;2022-08-21T07:41:19;19.60;99.90
7784;DHT22;19359;51.402;6.778;2022-08-21T07:43:46;19.70;99.90
7784;DHT22;19359;51.402;6.778;2022-08-21T07:46:13;19.70;99.90
7784;DHT22;19359;51.402;6.778;2022-08-21T07:48:40;19.70;99.90
7784;DHT22;19359;51.402;6.778;2022-08-21T07:51:09;19.70;99.90
7784;DHT22;19359;51.402;6.778;2022-08-21T07:53:37;19.70;99.90
7784;DHT22;19359;51.402;6.778;2022-08-21T07:56:06;19.80;99.90
7784;DHT22;19359;51.402;6.778;2022-08-21T07:58:34;19.90;99.90
7784;DHT22;19359;51.402;6.778;2022-08-21T08:01:01;20.00;99.90
7784;DHT22;19359;51.402;6.778;2022-08-21T08:03:27;20.00;99.90
7784;DHT22;19359;51.402;6.778;2022-08-21T08:05:54;20.10;99.90
7784;DHT22;19359;51.402;6.778;2022-08-21T08:10:49;20.30;99.90
7784;DHT22;19359;51.402;6.778;2022-08-21T08:13:17;20.30;99.90
7784;DHT22;19359;51.402;6.778;2022-08-21T08:15:44;20.40;99.90
7784;DHT22;19359;51.402;6.778;2022-08-21T08:18:11;20.40;99.90
7784;DHT22;19359;51.402;6.778;2022-08-21T08:20:39;20.50;99.90
7784;DHT22;19359;51.402;6.778;2022-08-21T08:23:06;20.50;99.90
7784;DHT22;19359;51.402;6.778;2022-08-21T08:25:33;20.70;99.90
7784;DHT22;19359;51.402;6.778;2022-08-21T08:28:00;20.70;99.90
7784;DHT22;19359;51.402;6.778;2022-08-21T08:30:28;20.70;99.90
7784;DHT22;19359;51.402;6.778;2022-08-21T08:32:55;20.80;99.90
7784;DHT22;19359;51.402;6.778;2022-08-21T08:35:23;20.90;99.90
7784;DHT22;19359;51.402;6.778;2022-08-21T08:37:50;21.00;99.90
7784;DHT22;19359;51.402;6.778;2022-08-21T08:40:21;21.20;99.90
7784;DHT22;19359;51.402;6.778;2022-08-21T08:42:50;21.30;99.90
7784;DHT22;19359;51.402;6.778;2022-08-21T08:45:19;21.40;99.90
7784;DHT22;19359;51.402;6.778;2022-08-21T08:47:51;21.60;99.90
7784;DHT22;19359;51.402;6.778;2022-08-21T08:50:27;21.60;99.90
7784;DHT22;19359;51.402;6.778;2022-08-21T08:52:59;21.90;99.90
7784;DHT22;19359;51.402;6.778;2022-08-21T08:55:34;21.80;99.90
7784;DHT22;19359;51.402;6.778;2022-08-21T08:58:02;21.70;99.90
7784;DHT22;19359;51.402;6.778;2022-08-21T09:00:30;21.70;99.90
7784;DHT22;19359;51.402;6.778;2022-08-21T09:03:02;21.50;99.90
7784;DHT22;19359;51.402;6.778;2022-08-21T09:05:38;21.50;99.90
7784;DHT22;19359;51.402;6.778;2022-08-21T09:08:32;21.50;99.90
7784;DHT22;19359;51.402;6.778;2022-08-21T09:11:02;21.60;99.90
7784;DHT22;19359;51.402;6.778;2022-08-21T09:13:49;21.60;99.90
7784;DHT22;19359;51.402;6.778;2022-08-21T09:16:24;21.60;99.90
7784;DHT22;19359;51.402;6.778;2022-08-21T09:19:03;21.60;99.90
7784;DHT22;19359;51.402;6.778;2022-08-21T09:21:37;21.70;99.90
7784;DHT22;19359;51.402;6.778;2022-08-21T09:24:23;22.00;99.90
7784;DHT22;19359;51.402;6.778;2022-08-21T09:27:08;22.20;99.90
7784;DHT22;19359;51.402;6.778;2022-08-21T09:29:37;22.30;99.90
7784;DHT22;19359;51.402;6.778;2022-08-21T09:32:18;22.40;99.90
7784;DHT22;19359;51.402;6.778;2022-08-21T09:34:58;22.40;99.90
7784;DHT22;19359;51.402;6.778;2022-08-21T09:37:26;22.50;99.90
7784;DHT22;19359;51.402;6.778;2022-08-21T09:39:55;22.60;99.90
7784;DHT22;19359;51.402;6.778;2022-08-21T09:42:24;22.60;99.90
7784;DHT22;19359;51.402;6.778;2022-08-21T09:45:10;22.60;99.90
7784;DHT22;19359;51.402;6.778;2022-08-21T09:47:37;22.70;99.90
7784;DHT22;19359;51.402;6.778;2022-08-21T09:50:11;22.60;99.90
7784;DHT22;19359;51.402;6.778;2022-08-21T09:52:45;22.90;99.90
7784;DHT22;19359;51.402;6.778;2022-08-21T09:55:18;22.90;99.90
7784;DHT22;19359;51.402;6.778;2022-08-21T09:57:59;22.90;99.90
7784;DHT22;19359;51.402;6.778;2022-08-21T10:00:29;23.10;99.90
7784;DHT22;19359;51.402;6.778;2022-08-21T10:03:08;23.30;99.90
7784;DHT22;19359;51.402;6.778;2022-08-21T10:05:37;23.40;99.90
7784;DHT22;19359;51.402;6.778;2022-08-21T10:08:04;23.40;99.90
7784;DHT22;19359;51.402;6.778;2022-08-21T10:10:36;23.50;99.90
7784;DHT22;19359;51.402;6.778;2022-08-21T10:13:08;23.60;99.90
7784;DHT22;19359;51.402;6.778;2022-08-21T10:15:46;23.30;99.90
7784;DHT22;19359;51.402;6.778;2022-08-21T10:18:21;23.30;99.90
7784;DHT22;19359;51.402;6.778;2022-08-21T10:20:59;23.20;99.90
7784;DHT22;19359;51.402;6.778;2022-08-21T10:23:38;23.40;99.90
7784;DHT22;19359;51.402;6.778;2022-08-21T10:26:15;23.40;99.90
7784;DHT22;19359;51.402;6.778;2022-08-21T10:28:51;23.80;99.90
7784;DHT22;19359;51.402;6.778;2022-08-21T10:31:26;23.80;99.90
7784;DHT22;19359;51.402;6.778;2022-08-21T10:34:06;23.90;99.90
7784;DHT22;19359;51.402;6.778;2022-08-21T10:36:42;24.10;99.90
7784;DHT22;19359;51.402;6.778;2022-08-21T10:39:18;24.10;99.90
7784;DHT22;19359;51.402;6.778;2022-08-21T10:44:52;24.10;99.90
7784;DHT22;19359;51.402;6.778;2022-08-21T10:47:30;24.40;99.90
7784;DHT22;19359;51.402;6.778;2022-08-21T10:50:06;24.10;99.90
7784;DHT22;19359;51.402;6.778;2022-08-21T10:52:47;24.20;99.90
7784;DHT22;19359;51.402;6.778;2022-08-21T10:55:20;24.40;99.90
7784;DHT22;19359;51.402;6.778;2022-08-21T10:57:50;24.30;99.90
7784;DHT22;19359;51.402;6.778;2022-08-21T11:00:21;24.20;99.90
7784;DHT22;19359;51.402;6.778;2022-08-21T11:02:52;24.10;99.90
7784;DHT22;19359;51.402;6.778;2022-08-21T11:05:30;24.10;99.90
7784;DHT22;19359;51.402;6.778;2022-08-21T11:08:02;24.10;99.90
7784;DHT22;19359;51.402;6.778;2022-08-21T11:10:36;24.20;99.90
7784;DHT22;19359;51.402;6.778;2022-08-21T11:13:06;24.20;99.90
7784;DHT22;19359;51.402;6.778;2022-08-21T11:15:41;24.20;99.90
7784;DHT22;19359;51.402;6.778;2022-08-21T11:18:18;24.20;99.90
7784;DHT22;19359;51.402;6.778;2022-08-21T11:20:51;24.50;99.90
7784;DHT22;19359;51.402;6.778;2022-08-21T11:23:25;24.50;99.90
7784;DHT22;19359;51.402;6.778;2022-08-21T11:26:00;24.50;99.90
7784;DHT22;19359;51.402;6.778;2022-08-21T11:28:31;24.40;99.90
7784;DHT22;19359;51.402;6.778;2022-08-21T11:31:10;24.60;99.90
7784;DHT22;19359;51.402;6.778;2022-08-21T11:34:01;24.60;99.90
7784;DHT22;19359;51.402;6.778;2022-08-21T11:36:35;24.70;99.90
7784;DHT22;19359;51.402;6.778;2022-08-21T11:39:11;25.10;99.90
7784;DHT22;19359;51.402;6.778;2022-08-21T11:41:46;25.00;99.90
7784;DHT22;19359;51.402;6.778;2022-08-21T11:44:22;25.00;99.90
7784;DHT22;19359;51.402;6.778;2022-08-21T11:46:57;25.00;99.90
7784;DHT22;19359;51.402;6.778;2022-08-21T11:49:47;24.90;99.90
7784;DHT22;19359;51.402;6.778;2022-08-21T11:52:19;24.90;99.90
7784;DHT22;19359;51.402;6.778;2022-08-21T11:54:51;25.50;99.90
7784;DHT22;19359;51.402;6.778;2022-08-21T11:57:21;25.90;99.90
7784;DHT22;19359;51.402;6.778;2022-08-21T11:59:53;25.90;99.90
7784;DHT22;19359;51.402;6.778;2022-08-21T12:02:27;25.90;99.90
7784;DHT22;19359;51.402;6.778;2022-08-21T12:04:58;25.70;99.90
7784;DHT22;19359;51.402;6.778;2022-08-21T12:07:32;26.00;99.90
7784;DHT22;19359;51.402;6.778;2022-08-21T12:10:04;26.50;99.90
7784;DHT22;19359;51.402;6.778;2022-08-21T12:12:34;26.50;99.90
7784;DHT22;19359;51.402;6.778;2022-08-21T12:15:24;26.50;99.90
7784;DHT22;19359;51.402;6.778;2022-08-21T12:17:57;26.60;99.90
7784;DHT22;19359;51.402;6.778;2022-08-21T12:20:43;26.60;99.90
7784;DHT22;19359;51.402;6.778;2022-08-21T12:23:30;26.40;99.90
7784;DHT22;19359;51.402;6.778;2022-08-21T12:26:10;26.20;99.90
7784;DHT22;19359;51.402;6.778;2022-08-21T12:28:40;26.40;99.90
7784;DHT22;19359;51.402;6.778;2022-08-21T12:31:20;26.60;99.90
7784;DHT22;19359;51.402;6.778;2022-08-21T12:33:52;27.00;99.90
7784;DHT22;19359;51.402;6.778;2022-08-21T12:36:23;27.60;99.90
7784;DHT22;19359;51.402;6.778;2022-08-21T12:38:54;28.20;99.90
7784;DHT22;19359;51.402;6.778;2022-08-21T12:41:27;28.30;99.90
7784;DHT22;19359;51.402;6.778;2022-08-21T12:43:58;28.20;99.90
7784;DHT22;19359;51.402;6.778;2022-08-21T12:46:32;28.60;99.90
7784;DHT22;19359;51.402;6.778;2022-08-21T12:49:07;29.50;99.90
7784;DHT22;19359;51.402;6.778;2022-08-21T12:51:42;30.10;99.90
7784;DHT22;19359;51.402;6.778;2022-08-21T12:54:22;30.40;99.90
7784;DHT22;19359;51.402;6.778;2022-08-21T12:56:58;30.00;99.90
7784;DHT22;19359;51.402;6.778;2022-08-21T12:59:25;29.30;99.90
7784;DHT22;19359;51.402;6.778;2022-08-21T13:01:54;29.30;99.90
7784;DHT22;19359;51.402;6.778;2022-08-21T13:04:25;29.60;99.90
7784;DHT22;19359;51.402;6.778;2022-08-21T13:06:54;29.50;99.90
7784;DHT22;19359;51.402;6.778;2022-08-21T13:09:26;29.60;99.90
7784;DHT22;19359;51.402;6.778;2022-08-21T13:11:53;30.10;99.90
7784;DHT22;19359;51.402;6.778;2022-08-21T13:14:26;29.90;99.90
7784;DHT22;19359;51.402;6.778;2022-08-21T13:16:54;29.30;99.90
7784;DHT22;19359;51.402;6.778;2022-08-21T13:19:22;29.80;99.90
7784;DHT22;19359;51.402;6.778;2022-08-21T13:21:50;30.40;99.90
7784;DHT22;19359;51.402;6.778;2022-08-21T13:24:20;30.00;99.90
7784;DHT22;19359;51.402;6.778;2022-08-21T13:26:48;30.00;99.90
7784;DHT22;19359;51.402;6.778;2022-08-21T13:29:16;30.50;99.90
7784;DHT22;19359;51.402;6.778;2022-08-21T13:31:51;31.20;99.90
7784;DHT22;19359;51.402;6.778;2022-08-21T13:34:18;31.30;99.90
7784;DHT22;19359;51.402;6.778;2022-08-21T13:36:46;31.30;99.90
7784;DHT22;19359;51.402;6.778;2022-08-21T13:39:17;30.80;99.90
7784;DHT22;19359;51.402;6.778;2022-08-21T13:41:47;30.10;99.90
7784;DHT22;19359;51.402;6.778;2022-08-21T13:44:16;30.40;99.90
7784;DHT22;19359;51.402;6.778;2022-08-21T13:46:44;30.90;99.90
7784;DHT22;19359;51.402;6.778;2022-08-21T13:49:14;31.60;99.90
7784;DHT22;19359;51.402;6.778;2022-08-21T13:51:43;32.50;99.90
7784;DHT22;19359;51.402;6.778;2022-08-21T13:54:15;32.60;99.90
7784;DHT22;19359;51.402;6.778;2022-08-21T13:56:44;31.90;99.90
7784;DHT22;19359;51.402;6.778;2022-08-21T13:59:11;30.70;99.90
7784;DHT22;19359;51.402;6.778;2022-08-21T14:01:49;30.00;99.90
7784;DHT22;19359;51.402;6.778;2022-08-21T14:04:24;29.60;99.90
7784;DHT22;19359;51.402;6.778;2022-08-21T14:06:52;29.40;99.90
7784;DHT22;19359;51.402;6.778;2022-08-21T14:09:26;29.30;99.90
7784;DHT22;19359;51.402;6.778;2022-08-21T14:11:56;29.60;99.90
7784;DHT22;19359;51.402;6.778;2022-08-21T14:14:25;29.40;99.90
7784;DHT22;19359;51.402;6.778;2022-08-21T14:16:54;29.00;99.90
7784;DHT22;19359;51.402;6.778;2022-08-21T14:19:25;28.80;99.90
7784;DHT22;19359;51.402;6.778;2022-08-21T14:21:52;28.60;99.90
7784;DHT22;19359;51.402;6.778;2022-08-21T14:24:28;29.10;99.90
7784;DHT22;19359;51.402;6.778;2022-08-21T14:27:01;30.10;99.90
7784;DHT22;19359;51.402;6.778;2022-08-21T14:29:33;31.20;99.90
7784;DHT22;19359;51.402;6.778;2022-08-21T14:32:09;32.10;99.90
7784;DHT22;19359;51.402;6.778;2022-08-21T14:34:37;33.40;99.90
7784;DHT22;19359;51.402;6.778;2022-08-21T14:37:04;34.10;99.90
7784;DHT22;19359;51.402;6.778;2022-08-21T14:39:31;33.20;99.90
7784;DHT22;19359;51.402;6.778;2022-08-21T14:41:58;33.50;99.90
7784;DHT22;19359;51.402;6.778;2022-08-21T14:44:26;33.40;99.90
7784;DHT22;19359;51.402;6.778;2022-08-21T14:46:53;34.00;99.90
7784;DHT22;19359;51.402;6.778;2022-08-21T14:49:21;33.90;99.90
7784;DHT22;19359;51.402;6.778;2022-08-21T14:51:49;34.30;99.90
7784;DHT22;19359;51.402;6.778;2022-08-21T14:54:22;34.30;99.90
7784;DHT22;19359;51.402;6.778;2022-08-21T14:56:49;34.10;99.90
7784;DHT22;19359;51.402;6.778;2022-08-21T14:59:18;34.70;99.90
7784;DHT22;19359;51.402;6.778;2022-08-21T15:04:12;35.80;99.90
7784;DHT22;19359;51.402;6.778;2022-08-21T15:06:39;34.50;99.90
7784;DHT22;19359;51.402;6.778;2022-08-21T15:09:07;32.80;99.90
7784;DHT22;19359;51.402;6.778;2022-08-21T15:14:03;30.90;99.90
7784;DHT22;19359;51.402;6.778;2022-08-21T15:16:33;32.10;99.90
7784;DHT22;19359;51.402;6.778;2022-08-21T15:19:00;33.10;99.90
7784;DHT22;19359;51.402;6.778;2022-08-21T15:21:27;34.30;99.90
7784;DHT22;19359;51.402;6.778;2022-08-21T15:23:54;35.10;99.90
7784;DHT22;19359;51.402;6.778;2022-08-21T15:26:23;35.30;99.90
7784;DHT22;19359;51.402;6.778;2022-08-21T15:28:50;34.10;99.90
7784;DHT22;19359;51.402;6.778;2022-08-21T15:31:17;33.10;99.90
7784;DHT22;19359;51.402;6.778;2022-08-21T15:33:44;33.80;99.90
7784;DHT22;19359;51.402;6.778;2022-08-21T15:41:05;32.20;99.90
7784;DHT22;19359;51.402;6.778;2022-08-21T15:43:38;31.90;99.90
7784;DHT22;19359;51.402;6.778;2022-08-21T15:46:08;31.50;99.90
7784;DHT22;19359;51.402;6.778;2022-08-21T15:48:36;31.60;99.90
7784;DHT22;19359;51.402;6.778;2022-08-21T15:51:03;32.40;99.90
7784;DHT22;19359;51.402;6.778;2022-08-21T15:53:30;32.50;99.90
7784;DHT22;19359;51.402;6.778;2022-08-21T15:55:57;31.30;99.90
7784;DHT22;19359;51.402;6.778;2022-08-21T15:58:26;30.50;99.90
7784;DHT22;19359;51.402;6.778;2022-08-21T16:00:54;31.50;99.90
7784;DHT22;19359;51.402;6.778;2022-08-21T16:03:25;32.10;99.90
7784;DHT22;19359;51.402;6.778;2022-08-21T16:05:52;31.80;99.90
7784;DHT22;19359;51.402;6.778;2022-08-21T16:08:22;31.30;99.90
7784;DHT22;19359;51.402;6.778;2022-08-21T16:10:49;31.30;99.90
7784;DHT22;19359;51.402;6.778;2022-08-21T16:13:21;29.90;99.90
7784;DHT22;19359;51.402;6.778;2022-08-21T16:15:50;30.00;99.90
7784;DHT22;19359;51.402;6.778;2022-08-21T16:18:20;29.10;99.90
7784;DHT22;19359;51.402;6.778;2022-08-21T16:20:48;29.00;99.90
7784;DHT22;19359;51.402;6.778;2022-08-21T16:23:14;28.70;99.90
7784;DHT22;19359;51.402;6.778;2022-08-21T16:25:41;28.60;99.90
7784;DHT22;19359;51.402;6.778;2022-08-21T16:28:10;28.30;99.90